createdAt,value
2019-03-06T00:01:07.202Z,93249.30
2019-03-06T00:03:40.167Z,93241.50
2019-03-06T00:06:16.629Z,93243.02
2019-03-06T00:08:47.801Z,93245.19
2019-03-06T00:11:22.128Z,93250.56
2019-03-06T00:13:55.080Z,93260.48
2019-03-06T00:16:28.521Z,93263.44
2019-03-06T00:19:01.529Z,93268.42
2019-03-06T00:26:52.546Z,93270.59
2019-03-06T00:29:25.424Z,93267.84
2019-03-06T00:31:58.285Z,93268.81
2019-03-06T00:34:31.709Z,93284.52
2019-03-06T00:37:04.765Z,93289.78
2019-03-06T00:39:41.834Z,93284.16
2019-03-06T00:42:14.866Z,93294.74
2019-03-06T00:44:47.945Z,93297.02
2019-03-06T00:47:20.705Z,93295.70
2019-03-06T00:49:54.246Z,93295.06
2019-03-06T00:52:27.066Z,93294.93
2019-03-06T00:55:00.045Z,93296.34
2019-03-06T00:57:33.086Z,93302.33
2019-03-06T01:00:06.466Z,93305.09
2019-03-06T01:02:39.346Z,93304.05
2019-03-06T01:05:12.086Z,93300.49
2019-03-06T01:07:45.125Z,93307.36
2019-03-06T01:10:17.924Z,93302.34
2019-03-06T01:12:51.043Z,93309.91
2019-03-06T01:15:25.764Z,93309.05
2019-03-06T01:17:58.869Z,93313.34
2019-03-06T01:20:31.723Z,93314.17
2019-03-06T01:23:04.668Z,93311.41
2019-03-06T01:25:37.483Z,93308.06
2019-03-06T01:28:10.723Z,93313.05
2019-03-06T01:30:43.803Z,93309.64
2019-03-06T01:33:27.043Z,93303.80
2019-03-06T01:36:01.406Z,93308.61
2019-03-06T01:38:51.983Z,93304.56
2019-03-06T01:41:38.243Z,93299.08
2019-03-06T01:44:18.523Z,93302.77
2019-03-06T01:46:51.643Z,93302.27
2019-03-06T01:49:25.443Z,93308.84
2019-03-06T01:51:58.304Z,93306.98
2019-03-06T01:54:31.604Z,93300.41
2019-03-06T01:57:04.643Z,93300.63
2019-03-06T01:59:37.963Z,93304.20
2019-03-06T02:02:11.003Z,93296.41
2019-03-06T02:04:43.870Z,93302.15
2019-03-06T02:07:16.623Z,93302.20
2019-03-06T02:09:49.624Z,93301.80
2019-03-06T02:12:22.451Z,93309.44
2019-03-06T02:14:55.783Z,93308.78
2019-03-06T02:17:28.663Z,93310.75
2019-03-06T02:20:01.826Z,93308.16
2019-03-06T02:22:34.963Z,93312.71
2019-03-06T02:25:08.065Z,93310.77
2019-03-06T02:27:41.004Z,93313.47
2019-03-06T02:30:14.024Z,93312.02
2019-03-06T02:32:47.029Z,93316.83
2019-03-06T02:35:20.026Z,93316.56
2019-03-06T02:37:53.626Z,93318.56
2019-03-06T02:40:26.563Z,93320.36
2019-03-06T02:42:59.844Z,93324.39
2019-03-06T02:45:33.204Z,93332.58
2019-03-06T02:48:06.093Z,93322.75
2019-03-06T02:50:39.124Z,93326.91
2019-03-06T02:53:12.764Z,93325.48
2019-03-06T02:55:45.625Z,93329.73
2019-03-06T02:58:26.343Z,93336.98
2019-03-06T03:01:18.863Z,93337.30
2019-03-06T03:04:00.224Z,93343.69
2019-03-06T03:06:34.864Z,93355.48
2019-03-06T03:09:07.645Z,93339.47
2019-03-06T03:11:40.863Z,93347.73
2019-03-06T03:14:14.344Z,93351.22
2019-03-06T03:16:47.244Z,93360.78
2019-03-06T03:19:20.286Z,93358.78
2019-03-06T03:21:53.284Z,93361.83
2019-03-06T03:24:26.384Z,93366.45
2019-03-06T03:26:59.829Z,93373.17
2019-03-06T03:29:32.663Z,93371.38
2019-03-06T03:32:06.013Z,93381.03
2019-03-06T03:34:39.364Z,93380.38
2019-03-06T03:37:12.783Z,93384.28
2019-03-06T03:39:45.685Z,93382.84
2019-03-06T03:42:18.785Z,93393.44
2019-03-06T03:44:51.964Z,93401.27
2019-03-06T03:47:24.988Z,93394.30
2019-03-06T03:49:58.063Z,93396.53
2019-03-06T03:52:30.905Z,93401.52
2019-03-06T03:55:07.044Z,93400.72
2019-03-06T03:57:40.047Z,93393.77
2019-03-06T04:00:13.005Z,93393.97
2019-03-06T04:02:45.792Z,93395.40
2019-03-06T04:05:19.145Z,93407.75
2019-03-06T04:07:52.375Z,93404.98
2019-03-06T04:10:25.265Z,93394.25
2019-03-06T04:12:58.046Z,93398.93
2019-03-06T04:15:30.913Z,93404.50
2019-03-06T04:18:03.632Z,93405.78
2019-03-06T04:20:36.644Z,93410.92
2019-03-06T04:23:10.143Z,93414.27
2019-03-06T04:25:43.122Z,93418.86
2019-03-06T04:28:16.245Z,93419.69
2019-03-06T04:30:50.603Z,93420.94
2019-03-06T04:33:23.403Z,93423.17
2019-03-06T04:35:56.274Z,93427.37
2019-03-06T04:38:29.063Z,93433.38
2019-03-06T04:41:01.836Z,93429.25
2019-03-06T04:43:34.611Z,93434.73
2019-03-06T04:46:07.910Z,93442.65
2019-03-06T04:48:40.597Z,93440.17
2019-03-06T04:51:13.631Z,93434.48
2019-03-06T04:53:46.476Z,93432.89
2019-03-06T04:56:19.206Z,93431.53
2019-03-06T04:58:55.123Z,93433.78
2019-03-06T05:01:28.438Z,93436.17
2019-03-06T05:04:01.641Z,93437.94
2019-03-06T05:06:34.628Z,93434.86
2019-03-06T05:09:07.705Z,93441.20
2019-03-06T05:11:40.691Z,93447.58
2019-03-06T05:14:14.512Z,93445.47
2019-03-06T05:16:54.946Z,93444.50
2019-03-06T05:19:27.745Z,93445.48
2019-03-06T05:22:00.765Z,93451.25
2019-03-06T05:24:33.985Z,93451.93
2019-03-06T05:27:07.205Z,93457.03
2019-03-06T05:29:39.966Z,93452.13
2019-03-06T05:32:13.486Z,93449.80
2019-03-06T05:34:46.365Z,93463.42
2019-03-06T05:37:19.445Z,93463.67
2019-03-06T05:39:52.466Z,93466.89
2019-03-06T05:42:25.645Z,93465.81
2019-03-06T05:44:58.505Z,93464.86
2019-03-06T05:47:31.287Z,93467.14
2019-03-06T05:50:04.047Z,93469.87
2019-03-06T05:52:37.546Z,93474.83
2019-03-06T05:55:11.347Z,93481.19
2019-03-06T05:57:44.205Z,93484.69
2019-03-06T06:00:18.827Z,93482.10
2019-03-06T06:02:51.565Z,93485.40
2019-03-06T06:05:24.445Z,93489.64
2019-03-06T06:07:57.445Z,93494.78
2019-03-06T06:10:30.407Z,93493.19
2019-03-06T06:13:03.047Z,93488.02
2019-03-06T06:15:36.345Z,93492.75
2019-03-06T06:18:09.905Z,93498.22
2019-03-06T06:20:42.746Z,93498.10
2019-03-06T06:23:33.445Z,93509.36
2019-03-06T06:26:06.865Z,93508.81
2019-03-06T06:28:39.973Z,93512.50
2019-03-06T06:31:13.117Z,93516.59
2019-03-06T06:33:46.165Z,93516.71
2019-03-06T06:36:19.185Z,93519.50
2019-03-06T06:38:52.246Z,93518.98
2019-03-06T06:41:25.125Z,93525.73
2019-03-06T06:43:58.086Z,93527.47
2019-03-06T06:46:30.984Z,93525.31
2019-03-06T06:49:03.944Z,93519.19
2019-03-06T06:51:37.723Z,93516.45
2019-03-06T06:54:10.545Z,93523.92
2019-03-06T06:56:43.484Z,93530.23
2019-03-06T06:59:16.443Z,93532.39
2019-03-06T07:01:57.983Z,93535.56
2019-03-06T07:04:41.464Z,93540.53
2019-03-06T07:07:21.984Z,93547.67
2019-03-06T07:09:59.323Z,93549.20
2019-03-06T07:12:43.904Z,93556.91
2019-03-06T07:15:21.083Z,93565.36
2019-03-06T07:17:55.723Z,93563.36
2019-03-06T07:20:30.543Z,93555.86
2019-03-06T07:23:04.963Z,93565.64
2019-03-06T07:25:54.763Z,93569.65
2019-03-06T07:28:29.404Z,93580.41
2019-03-06T07:31:03.786Z,93575.89
2019-03-06T07:33:41.164Z,93577.78
2019-03-06T07:36:32.665Z,93579.22
2019-03-06T07:39:07.163Z,93583.59
2019-03-06T07:41:47.745Z,93581.88
2019-03-06T07:44:30.513Z,93580.44
2019-03-06T07:47:14.368Z,93581.44
2019-03-06T07:49:48.824Z,93579.41
2019-03-06T07:52:21.444Z,93582.92
2019-03-06T07:55:12.147Z,93584.66
2019-03-06T07:57:46.604Z,93587.09
2019-03-06T08:00:19.564Z,93586.38
2019-03-06T08:02:52.403Z,93591.09
2019-03-06T08:05:25.403Z,93598.80
2019-03-06T08:07:58.228Z,93590.21
2019-03-06T08:10:32.704Z,93590.47
2019-03-06T08:13:07.243Z,93596.80
2019-03-06T08:15:47.543Z,93586.55
2019-03-06T08:18:25.003Z,93588.00
2019-03-06T08:20:59.643Z,93586.78
2019-03-06T08:23:40.163Z,93592.30
2019-03-06T08:26:13.003Z,93584.04
2019-03-06T08:28:46.163Z,93585.36
2019-03-06T08:31:26.624Z,93581.89
2019-03-06T08:33:59.504Z,93581.68
2019-03-06T08:36:32.323Z,93576.66
2019-03-06T08:39:05.383Z,93573.77
2019-03-06T08:41:38.683Z,93574.25
2019-03-06T08:44:11.843Z,93580.58
2019-03-06T08:46:51.243Z,93580.69
2019-03-06T08:49:35.623Z,93574.77
2019-03-06T08:52:26.363Z,93574.38
2019-03-06T08:55:15.844Z,93561.12
2019-03-06T08:57:53.165Z,93556.31
2019-03-06T09:00:25.825Z,93562.77
2019-03-06T09:03:00.303Z,93550.86
2019-03-06T09:05:44.907Z,93540.48
2019-03-06T09:08:29.943Z,93544.89
2019-03-06T09:11:20.463Z,93547.45
2019-03-06T09:13:55.043Z,93556.05
2019-03-06T09:16:41.603Z,93552.86
2019-03-06T09:19:22.049Z,93550.98
2019-03-06T09:21:56.843Z,93557.51
2019-03-06T09:24:41.986Z,93550.81
2019-03-06T09:27:28.783Z,93563.14
2019-03-06T09:30:19.805Z,93559.28
2019-03-06T09:32:57.652Z,93556.31
2019-03-06T09:35:50.590Z,93552.92
2019-03-06T09:38:35.323Z,93554.75
2019-03-06T09:41:09.743Z,93551.77
2019-03-06T09:43:53.383Z,93555.55
2019-03-06T09:46:40.023Z,93390.94
2019-03-06T09:49:14.884Z,93541.77
2019-03-06T09:51:50.663Z,93544.70
2019-03-06T09:54:34.103Z,93534.84
2019-03-06T09:57:12.512Z,93535.45
2019-03-06T09:59:46.943Z,93541.52
2019-03-06T10:02:21.305Z,93537.03
2019-03-06T10:04:58.923Z,93535.16
2019-03-06T10:07:42.483Z,93529.81
2019-03-06T10:10:29.123Z,93521.92
2019-03-06T10:13:18.744Z,93516.14
2019-03-06T10:15:53.244Z,93520.39
2019-03-06T10:18:27.723Z,93528.78
2019-03-06T10:21:00.764Z,93527.47
2019-03-06T10:23:33.563Z,93518.23
2019-03-06T10:26:06.604Z,93515.55
2019-03-06T10:28:39.403Z,93513.19
2019-03-06T10:31:13.243Z,93514.80
2019-03-06T10:33:46.063Z,93503.65
2019-03-06T10:36:19.403Z,93510.34
2019-03-06T10:38:52.252Z,93503.09
2019-03-06T10:41:25.763Z,93501.02
2019-03-06T10:43:59.123Z,93502.59
2019-03-06T10:46:32.104Z,93506.00
2019-03-06T10:49:04.983Z,93503.06
2019-03-06T10:51:37.744Z,93495.73
2019-03-06T10:54:10.903Z,93501.92
2019-03-06T10:56:44.088Z,93492.03
2019-03-06T10:59:16.946Z,93485.61
2019-03-06T11:01:50.083Z,93486.39
2019-03-06T11:04:27.544Z,93483.00
2019-03-06T11:07:00.623Z,93475.05
2019-03-06T11:09:34.083Z,93478.53
2019-03-06T11:12:07.008Z,93479.33
2019-03-06T11:14:40.947Z,93473.23
2019-03-06T11:17:14.192Z,93472.65
2019-03-06T11:19:47.724Z,93467.13
2019-03-06T11:22:20.744Z,93459.19
2019-03-06T11:24:53.743Z,93458.56
2019-03-06T11:27:26.623Z,93451.75
2019-03-06T11:29:59.652Z,93461.56
2019-03-06T11:32:32.863Z,93454.84
2019-03-06T11:35:05.753Z,93446.36
2019-03-06T11:37:38.744Z,93449.42
2019-03-06T11:40:11.583Z,93437.75
2019-03-06T11:42:45.123Z,93433.23
2019-03-06T11:45:18.043Z,93430.89
2019-03-06T11:47:51.463Z,93436.41
2019-03-06T11:50:24.396Z,93427.98
2019-03-06T11:52:57.344Z,93425.59
2019-03-06T11:55:30.423Z,93421.88
2019-03-06T11:58:03.248Z,93426.80
2019-03-06T12:00:40.704Z,93420.50
2019-03-06T12:03:13.628Z,93419.88
2019-03-06T12:05:46.444Z,93403.11
2019-03-06T12:08:19.466Z,93396.18
2019-03-06T12:10:52.363Z,93401.03
2019-03-06T12:13:25.203Z,93397.06
2019-03-06T12:15:58.524Z,93392.09
2019-03-06T12:18:34.057Z,93391.16
2019-03-06T12:21:06.804Z,93379.61
2019-03-06T12:23:40.403Z,93383.70
2019-03-06T12:26:13.403Z,93368.70
2019-03-06T12:28:46.263Z,93377.59
2019-03-06T12:31:19.323Z,93369.82
2019-03-06T12:33:52.603Z,93364.80
2019-03-06T12:36:25.403Z,93361.27
2019-03-06T12:38:58.443Z,93350.63
2019-03-06T12:41:31.263Z,93343.22
2019-03-06T12:44:10.450Z,93350.65
2019-03-06T12:46:38.731Z,93347.55
2019-03-06T12:49:11.924Z,93334.59
2019-03-06T12:51:53.829Z,93329.49
2019-03-06T12:54:19.424Z,93323.80
2019-03-06T12:56:52.731Z,93311.40
2019-03-06T12:59:25.623Z,93307.42
2019-03-06T13:01:58.493Z,93302.80
2019-03-06T13:04:31.483Z,93297.69
2019-03-06T13:07:04.283Z,93293.29
2019-03-06T13:09:37.704Z,93292.05
2019-03-06T13:12:11.583Z,93288.35
2019-03-06T13:14:44.563Z,93279.98
2019-03-06T13:17:17.806Z,93281.05
2019-03-06T13:19:50.762Z,93286.40
2019-03-06T13:22:24.143Z,93279.09
2019-03-06T13:24:57.463Z,93265.52
2019-03-06T13:27:30.583Z,93270.56
2019-03-06T13:30:03.343Z,93264.88
2019-03-06T13:32:37.907Z,93261.93
2019-03-06T13:35:10.967Z,93253.27
2019-03-06T13:37:43.723Z,93256.83
2019-03-06T13:40:18.808Z,93243.50
2019-03-06T13:42:51.544Z,93247.83
2019-03-06T13:45:26.803Z,93245.52
2019-03-06T13:47:59.883Z,93239.66
2019-03-06T13:50:32.744Z,93238.02
2019-03-06T13:53:06.986Z,93231.59
2019-03-06T13:55:40.204Z,93231.80
2019-03-06T13:58:13.384Z,93226.89
2019-03-06T14:00:46.303Z,93225.80
2019-03-06T14:03:19.303Z,93216.92
2019-03-06T14:05:52.223Z,93220.88
2019-03-06T14:08:25.426Z,93216.08
2019-03-06T14:10:58.445Z,93213.47
2019-03-06T14:13:31.844Z,93211.40
2019-03-06T14:16:05.127Z,93209.57
2019-03-06T14:18:37.903Z,93204.87
2019-03-06T14:21:11.424Z,93207.72
2019-03-06T14:23:44.886Z,93198.94
2019-03-06T14:26:18.609Z,93204.62
2019-03-06T14:28:53.823Z,93205.52
2019-03-06T14:31:27.004Z,93196.19
2019-03-06T14:33:59.793Z,93198.77
2019-03-06T14:36:33.191Z,93188.65
2019-03-06T14:39:06.043Z,93190.31
2019-03-06T14:41:39.503Z,93188.59
2019-03-06T14:44:12.503Z,93183.70
2019-03-06T14:46:45.903Z,93183.38
2019-03-06T14:49:18.843Z,93178.97
2019-03-06T14:51:51.683Z,93173.13
2019-03-06T14:54:25.030Z,93166.03
2019-03-06T14:56:58.203Z,93160.73
2019-03-06T14:59:31.103Z,93156.95
2019-03-06T15:02:03.933Z,93154.06
2019-03-06T15:04:37.424Z,93150.21
2019-03-06T15:07:10.284Z,93152.45
2019-03-06T15:09:43.243Z,93147.05
2019-03-06T15:12:16.123Z,93141.66
2019-03-06T15:14:49.726Z,93140.53
2019-03-06T15:17:23.326Z,93136.95
2019-03-06T15:19:56.463Z,93134.06
2019-03-06T15:22:38.194Z,93128.22
2019-03-06T15:25:03.784Z,93126.63
2019-03-06T15:27:36.704Z,93127.61
2019-03-06T15:30:10.224Z,93124.88
2019-03-06T15:32:43.845Z,93125.78
2019-03-06T15:35:16.663Z,93120.95
2019-03-06T15:37:49.691Z,93104.98
2019-03-06T15:40:23.627Z,93103.35
2019-03-06T15:42:56.644Z,93104.63
2019-03-06T15:45:32.763Z,93098.16
2019-03-06T15:48:06.524Z,93092.41
2019-03-06T15:50:39.403Z,93091.88
2019-03-06T15:53:12.203Z,93085.63
2019-03-06T15:55:45.064Z,93083.41
2019-03-06T15:58:18.124Z,93082.32
2019-03-06T16:00:51.206Z,93084.21
2019-03-06T16:03:24.244Z,93081.06
2019-03-06T16:05:58.086Z,93076.23
2019-03-06T16:08:31.644Z,93080.13
2019-03-06T16:11:04.504Z,93073.20
2019-03-06T16:13:37.304Z,93069.38
2019-03-06T16:16:10.444Z,93076.23
2019-03-06T16:18:43.844Z,93062.53
2019-03-06T16:21:16.723Z,93066.30
2019-03-06T16:23:52.633Z,93063.17
2019-03-06T16:26:25.803Z,93051.59
2019-03-06T16:28:58.764Z,93049.13
2019-03-06T16:31:31.845Z,93050.48
2019-03-06T16:34:04.745Z,93037.58
2019-03-06T16:36:37.568Z,93035.02
2019-03-06T16:39:10.908Z,93020.34
2019-03-06T16:41:44.150Z,93031.30
2019-03-06T16:44:17.272Z,93027.84
2019-03-06T16:46:50.284Z,93023.08
2019-03-06T16:49:23.244Z,93023.83
2019-03-06T16:51:58.564Z,93021.18
2019-03-06T16:54:31.384Z,93019.89
2019-03-06T16:57:04.146Z,93020.20
2019-03-06T16:59:37.104Z,93010.89
2019-03-06T17:02:10.216Z,93016.42
2019-03-06T17:04:43.000Z,93017.25
2019-03-06T17:07:15.844Z,93013.01
2019-03-06T17:09:48.783Z,93019.89
2019-03-06T17:12:21.746Z,93019.06
2019-03-06T17:14:55.186Z,93019.39
2019-03-06T17:17:27.946Z,93018.34
2019-03-06T17:20:00.966Z,93012.01
2019-03-06T17:22:33.886Z,93015.47
2019-03-06T17:25:06.698Z,93022.33
2019-03-06T17:27:39.606Z,93014.16
2019-03-06T17:30:13.039Z,93010.98
2019-03-06T17:32:45.805Z,93020.23
2019-03-06T17:35:19.185Z,93015.72
2019-03-06T17:37:52.086Z,93014.66
2019-03-06T17:40:24.945Z,93010.97
2019-03-06T17:42:57.890Z,93010.98
2019-03-06T17:45:30.806Z,93004.63
2019-03-06T17:48:03.801Z,93011.47
2019-03-06T17:50:37.605Z,93003.56
2019-03-06T17:53:10.306Z,93003.57
2019-03-06T17:55:43.284Z,93005.95
2019-03-06T17:58:16.147Z,93000.89
2019-03-06T18:00:50.686Z,93003.56
2019-03-06T18:03:31.244Z,92996.42
2019-03-06T18:06:04.032Z,93000.95
2019-03-06T18:08:36.826Z,92997.00
2019-03-06T18:11:09.952Z,92989.61
2019-03-06T18:13:43.105Z,92989.36
2019-03-06T18:16:15.858Z,92981.70
2019-03-06T18:18:48.683Z,92976.36
2019-03-06T18:21:21.564Z,92971.39
2019-03-06T18:23:55.086Z,92965.56
2019-03-06T18:26:27.806Z,92962.95
2019-03-06T18:29:01.727Z,92958.16
2019-03-06T18:31:34.586Z,92954.42
2019-03-06T18:34:07.467Z,92948.06
2019-03-06T18:36:40.386Z,92935.19
2019-03-06T18:39:14.898Z,92940.97
2019-03-06T18:41:47.626Z,92930.42
2019-03-06T18:44:20.467Z,92923.98
2019-03-06T18:46:53.426Z,92922.72
2019-03-06T18:49:26.421Z,92918.23
2019-03-06T18:51:59.154Z,92909.31
2019-03-06T18:54:32.025Z,92912.17
2019-03-06T18:57:04.973Z,92922.75
2019-03-06T18:59:37.917Z,92908.00
2019-03-06T19:02:10.946Z,92911.94
2019-03-06T19:04:43.995Z,92910.69
2019-03-06T19:07:16.685Z,92908.04
2019-03-06T19:09:49.510Z,92913.77
2019-03-06T19:12:22.430Z,92907.88
2019-03-06T19:14:55.410Z,92916.41
2019-03-06T19:17:28.103Z,92904.03
2019-03-06T19:20:00.964Z,92907.45
2019-03-06T19:22:33.883Z,92908.19
2019-03-06T19:25:06.743Z,92902.70
2019-03-06T19:27:39.446Z,92882.33
2019-03-06T19:30:12.266Z,92884.16
2019-03-06T19:32:45.455Z,92888.50
2019-03-06T19:35:18.172Z,92887.98
2019-03-06T19:37:51.647Z,92888.00
2019-03-06T19:40:24.703Z,92879.30
2019-03-06T19:42:57.572Z,92866.67
2019-03-06T19:45:31.046Z,92860.27
2019-03-06T19:48:03.845Z,92858.63
2019-03-06T19:50:37.126Z,92858.99
2019-03-06T19:53:10.284Z,92851.83
2019-03-06T19:55:43.206Z,92849.83
2019-03-06T19:58:17.114Z,92842.46
2019-03-06T20:00:50.606Z,92844.84
2019-03-06T20:03:23.386Z,92839.03
2019-03-06T20:05:56.366Z,92830.84
2019-03-06T20:08:29.165Z,92817.94
2019-03-06T20:11:02.027Z,92813.19
2019-03-06T20:13:35.046Z,92822.89
2019-03-06T20:16:08.073Z,92796.84
2019-03-06T20:18:41.425Z,92789.75
2019-03-06T20:21:14.347Z,92791.06
2019-03-06T20:23:47.146Z,92780.79
2019-03-06T20:26:19.967Z,92769.70
2019-03-06T20:28:52.885Z,92766.00
2019-03-06T20:31:26.146Z,92772.83
2019-03-06T20:33:59.694Z,92773.01
2019-03-06T20:36:32.426Z,92768.14
2019-03-06T20:39:05.345Z,92762.16
2019-03-06T20:41:38.625Z,92747.52
2019-03-06T20:44:11.526Z,92749.33
2019-03-06T20:46:44.606Z,92758.79
2019-03-06T20:49:17.565Z,92738.23
2019-03-06T20:51:50.866Z,92747.45
2019-03-06T20:54:24.125Z,92732.84
2019-03-06T20:56:56.905Z,92738.75
2019-03-06T20:59:29.867Z,92759.02
2019-03-06T21:02:02.788Z,92731.34
2019-03-06T21:04:35.646Z,92730.02
2019-03-06T21:07:09.129Z,92725.92
2019-03-06T21:09:42.407Z,92726.19
2019-03-06T21:12:15.244Z,92733.81
2019-03-06T21:14:48.266Z,92729.30
2019-03-06T21:17:21.184Z,92715.95
2019-03-06T21:19:54.243Z,92715.77
2019-03-06T21:22:26.921Z,92715.05
2019-03-06T21:24:59.924Z,92719.16
2019-03-06T21:27:33.403Z,92725.17
2019-03-06T21:30:06.243Z,92702.00
2019-03-06T21:32:39.085Z,92708.86
2019-03-06T21:35:11.893Z,92701.55
2019-03-06T21:37:44.766Z,92693.52
2019-03-06T21:40:17.824Z,92712.72
2019-03-06T21:42:51.264Z,92686.13
2019-03-06T21:45:24.484Z,92702.69
2019-03-06T21:47:57.779Z,92696.28
2019-03-06T21:50:31.023Z,92686.62
2019-03-06T21:53:03.763Z,92702.67
2019-03-06T21:55:36.544Z,92705.89
2019-03-06T21:58:09.324Z,92703.12
2019-03-06T22:00:42.696Z,92705.01
2019-03-06T22:03:15.645Z,92690.90
2019-03-06T22:05:48.783Z,92699.61
2019-03-06T22:08:21.784Z,92686.83
2019-03-06T22:10:54.924Z,92692.06
2019-03-06T22:13:27.884Z,92689.85
2019-03-06T22:16:00.863Z,92692.73
2019-03-06T22:18:33.951Z,92690.50
2019-03-06T22:21:07.083Z,92692.36
2019-03-06T22:23:39.864Z,92681.95
2019-03-06T22:26:13.343Z,92682.91
2019-03-06T22:28:46.583Z,92662.23
2019-03-06T22:31:19.433Z,92679.41
2019-03-06T22:33:52.383Z,92689.44
2019-03-06T22:36:25.363Z,92676.30
2019-03-06T22:38:59.189Z,92691.27
2019-03-06T22:41:32.284Z,92691.14
2019-03-06T22:44:05.164Z,92693.08
2019-03-06T22:46:38.284Z,92691.52
2019-03-06T22:49:11.051Z,92692.76
2019-03-06T22:51:44.644Z,92698.70
2019-03-06T22:54:17.544Z,92692.13
2019-03-06T22:56:50.343Z,92688.70
2019-03-06T22:59:23.323Z,92691.34
2019-03-06T23:01:56.663Z,92687.84
2019-03-06T23:04:29.703Z,92674.30
2019-03-06T23:07:04.805Z,92691.20
2019-03-06T23:09:37.804Z,92671.10
2019-03-06T23:12:10.478Z,92659.86
2019-03-06T23:14:43.364Z,92669.20
2019-03-06T23:17:16.263Z,92654.93
2019-03-06T23:19:49.444Z,92661.44
2019-03-06T23:22:22.303Z,92665.34
2019-03-06T23:24:55.643Z,92666.72
2019-03-06T23:27:28.963Z,92663.57
2019-03-06T23:30:02.013Z,92665.56
2019-03-06T23:32:35.203Z,92660.03
2019-03-06T23:35:08.773Z,92654.42
2019-03-06T23:37:42.264Z,92664.14
2019-03-06T23:40:16.003Z,92651.56
2019-03-06T23:42:49.283Z,92672.67
2019-03-06T23:45:22.480Z,92665.81
2019-03-06T23:47:55.363Z,92688.98
2019-03-06T23:50:28.363Z,92672.64
2019-03-06T23:53:01.003Z,92683.22
2019-03-06T23:55:34.412Z,92680.30
2019-03-06T23:58:07.263Z,92696.16
